sensor_id;sensor_type;location;lat;lon;timestamp;temperature;humidity
5130;DHT22;2583;50.946;6.954;2023-04-03T00:00:46;5.70;1.00
5130;DHT22;2583;50.946;6.954;2023-04-03T00:03:13;5.70;1.00
5130;DHT22;2583;50.946;6.954;2023-04-03T00:05:40;5.60;1.00
5130;DHT22;2583;50.946;6.954;2023-04-03T00:08:07;5.50;1.00
5130;DHT22;2583;50.946;6.954;2023-04-03T00:10:36;5.50;1.00
5130;DHT22;2583;50.946;6.954;2023-04-03T00:13:05;5.50;1.00
5130;DHT22;2583;50.946;6.954;2023-04-03T00:15:33;5.50;1.00
5130;DHT22;2583;50.946;6.954;2023-04-03T00:18:00;5.40;1.00
5130;DHT22;2583;50.946;6.954;2023-04-03T00:20:27;5.40;1.00
5130;DHT22;2583;50.946;6.954;2023-04-03T00:22:54;5.40;1.00
5130;DHT22;2583;50.946;6.954;2023-04-03T00:25:21;5.30;1.00
5130;DHT22;2583;50.946;6.954;2023-04-03T00:27:48;5.30;1.00
5130;DHT22;2583;50.946;6.954;2023-04-03T00:30:17;5.20;1.00
5130;DHT22;2583;50.946;6.954;2023-04-03T00:32:44;5.10;1.00
5130;DHT22;2583;50.946;6.954;2023-04-03T00:35:11;5.10;1.00
5130;DHT22;2583;50.946;6.954;2023-04-03T00:37:42;5.10;1.00
5130;DHT22;2583;50.946;6.954;2023-04-03T00:40:11;5.00;1.00
5130;DHT22;2583;50.946;6.954;2023-04-03T00:42:40;5.00;1.00
5130;DHT22;2583;50.946;6.954;2023-04-03T00:47:40;5.00;1.00
5130;DHT22;2583;50.946;6.954;2023-04-03T00:50:08;4.90;1.00
5130;DHT22;2583;50.946;6.954;2023-04-03T00:52:34;4.90;1.00
5130;DHT22;2583;50.946;6.954;2023-04-03T00:55:06;4.90;1.00
5130;DHT22;2583;50.946;6.954;2023-04-03T00:57:34;4.80;1.00
5130;DHT22;2583;50.946;6.954;2023-04-03T01:00:06;4.80;1.00
5130;DHT22;2583;50.946;6.954;2023-04-03T01:02:36;4.80;1.00
5130;DHT22;2583;50.946;6.954;2023-04-03T01:05:04;4.80;1.00
5130;DHT22;2583;50.946;6.954;2023-04-03T01:07:31;4.70;1.00
5130;DHT22;2583;50.946;6.954;2023-04-03T01:10:04;4.70;1.00
5130;DHT22;2583;50.946;6.954;2023-04-03T01:12:37;4.80;1.00
5130;DHT22;2583;50.946;6.954;2023-04-03T01:15:08;4.80;1.00
5130;DHT22;2583;50.946;6.954;2023-04-03T01:17:40;4.80;1.00
5130;DHT22;2583;50.946;6.954;2023-04-03T01:28:14;4.80;1.00
5130;DHT22;2583;50.946;6.954;2023-04-03T01:33:19;4.80;1.00
5130;DHT22;2583;50.946;6.954;2023-04-03T01:35:46;4.80;1.00
5130;DHT22;2583;50.946;6.954;2023-04-03T01:38:13;4.90;1.00
5130;DHT22;2583;50.946;6.954;2023-04-03T01:40:40;4.90;1.00
5130;DHT22;2583;50.946;6.954;2023-04-03T01:43:06;4.90;1.00
5130;DHT22;2583;50.946;6.954;2023-04-03T01:45:33;4.90;1.00
5130;DHT22;2583;50.946;6.954;2023-04-03T01:48:00;4.90;1.00
5130;DHT22;2583;50.946;6.954;2023-04-03T01:50:27;4.80;1.00
5130;DHT22;2583;50.946;6.954;2023-04-03T01:52:54;4.80;1.00
5130;DHT22;2583;50.946;6.954;2023-04-03T01:55:21;4.80;1.00
5130;DHT22;2583;50.946;6.954;2023-04-03T01:57:47;4.70;1.00
5130;DHT22;2583;50.946;6.954;2023-04-03T02:00:14;4.70;1.00
5130;DHT22;2583;50.946;6.954;2023-04-03T02:02:42;4.60;1.00
5130;DHT22;2583;50.946;6.954;2023-04-03T02:05:09;4.50;1.00
5130;DHT22;2583;50.946;6.954;2023-04-03T02:07:36;4.40;1.00
5130;DHT22;2583;50.946;6.954;2023-04-03T02:10:02;4.40;1.00
5130;DHT22;2583;50.946;6.954;2023-04-03T02:12:29;4.40;1.00
5130;DHT22;2583;50.946;6.954;2023-04-03T02:14:56;4.30;1.00
5130;DHT22;2583;50.946;6.954;2023-04-03T02:17:23;4.30;1.00
5130;DHT22;2583;50.946;6.954;2023-04-03T02:19:50;4.30;1.00
5130;DHT22;2583;50.946;6.954;2023-04-03T02:22:16;4.20;1.00
5130;DHT22;2583;50.946;6.954;2023-04-03T02:24:43;4.20;1.00
5130;DHT22;2583;50.946;6.954;2023-04-03T02:27:11;4.20;1.00
5130;DHT22;2583;50.946;6.954;2023-04-03T02:29:37;4.20;1.00
5130;DHT22;2583;50.946;6.954;2023-04-03T02:32:04;4.20;1.00
5130;DHT22;2583;50.946;6.954;2023-04-03T02:34:31;4.10;1.00
5130;DHT22;2583;50.946;6.954;2023-04-03T02:36:58;4.10;1.00
5130;DHT22;2583;50.946;6.954;2023-04-03T02:39:25;4.10;1.00
5130;DHT22;2583;50.946;6.954;2023-04-03T02:41:52;4.10;1.00
5130;DHT22;2583;50.946;6.954;2023-04-03T02:44:19;4.10;1.00
5130;DHT22;2583;50.946;6.954;2023-04-03T02:46:46;4.10;1.00
5130;DHT22;2583;50.946;6.954;2023-04-03T02:49:13;4.00;1.00
5130;DHT22;2583;50.946;6.954;2023-04-03T02:51:39;4.00;1.00
5130;DHT22;2583;50.946;6.954;2023-04-03T02:54:06;4.00;1.00
5130;DHT22;2583;50.946;6.954;2023-04-03T02:56:33;4.00;1.00
5130;DHT22;2583;50.946;6.954;2023-04-03T02:59:00;3.90;1.00
5130;DHT22;2583;50.946;6.954;2023-04-03T03:01:27;3.90;1.00
5130;DHT22;2583;50.946;6.954;2023-04-03T03:04:01;3.80;1.00
5130;DHT22;2583;50.946;6.954;2023-04-03T03:06:27;3.80;1.00
5130;DHT22;2583;50.946;6.954;2023-04-03T03:08:54;3.80;1.00
5130;DHT22;2583;50.946;6.954;2023-04-03T03:11:21;3.70;1.00
5130;DHT22;2583;50.946;6.954;2023-04-03T03:13:48;3.70;1.00
5130;DHT22;2583;50.946;6.954;2023-04-03T03:16:15;3.70;1.00
5130;DHT22;2583;50.946;6.954;2023-04-03T03:18:42;3.60;1.00
5130;DHT22;2583;50.946;6.954;2023-04-03T03:21:09;3.60;1.00
5130;DHT22;2583;50.946;6.954;2023-04-03T03:23:37;3.60;1.00
5130;DHT22;2583;50.946;6.954;2023-04-03T03:26:06;3.60;1.00
5130;DHT22;2583;50.946;6.954;2023-04-03T03:28:34;3.60;1.00
5130;DHT22;2583;50.946;6.954;2023-04-03T03:31:01;3.60;1.00
5130;DHT22;2583;50.946;6.954;2023-04-03T03:33:28;3.60;1.00
5130;DHT22;2583;50.946;6.954;2023-04-03T03:35:55;3.60;1.00
5130;DHT22;2583;50.946;6.954;2023-04-03T03:38:23;3.50;1.00
5130;DHT22;2583;50.946;6.954;2023-04-03T03:40:50;3.50;1.00
5130;DHT22;2583;50.946;6.954;2023-04-03T03:43:18;3.50;1.00
5130;DHT22;2583;50.946;6.954;2023-04-03T03:45:45;3.50;1.00
5130;DHT22;2583;50.946;6.954;2023-04-03T03:48:12;3.50;1.00
5130;DHT22;2583;50.946;6.954;2023-04-03T03:50:39;3.50;1.00
5130;DHT22;2583;50.946;6.954;2023-04-03T03:53:06;3.50;1.00
5130;DHT22;2583;50.946;6.954;2023-04-03T03:55:33;3.50;1.00
5130;DHT22;2583;50.946;6.954;2023-04-03T03:58:00;3.50;1.00
5130;DHT22;2583;50.946;6.954;2023-04-03T04:00:27;3.50;1.00
5130;DHT22;2583;50.946;6.954;2023-04-03T04:02:54;3.50;1.00
5130;DHT22;2583;50.946;6.954;2023-04-03T04:05:25;3.50;1.00
5130;DHT22;2583;50.946;6.954;2023-04-03T04:07:51;3.50;1.00
5130;DHT22;2583;50.946;6.954;2023-04-03T04:10:18;3.50;1.00
5130;DHT22;2583;50.946;6.954;2023-04-03T04:12:45;3.50;1.00
5130;DHT22;2583;50.946;6.954;2023-04-03T04:15:12;3.50;1.00
5130;DHT22;2583;50.946;6.954;2023-04-03T04:17:39;3.50;1.00
5130;DHT22;2583;50.946;6.954;2023-04-03T04:20:06;3.50;1.00
5130;DHT22;2583;50.946;6.954;2023-04-03T04:22:33;3.40;1.00
5130;DHT22;2583;50.946;6.954;2023-04-03T04:24:59;3.40;1.00
5130;DHT22;2583;50.946;6.954;2023-04-03T04:27:26;3.40;1.00
5130;DHT22;2583;50.946;6.954;2023-04-03T04:29:53;3.40;1.00
5130;DHT22;2583;50.946;6.954;2023-04-03T04:32:20;3.40;1.00
5130;DHT22;2583;50.946;6.954;2023-04-03T04:34:47;3.40;1.00
5130;DHT22;2583;50.946;6.954;2023-04-03T04:37:13;3.50;1.00
5130;DHT22;2583;50.946;6.954;2023-04-03T04:39:40;3.50;1.00
5130;DHT22;2583;50.946;6.954;2023-04-03T04:42:07;3.50;1.00
5130;DHT22;2583;50.946;6.954;2023-04-03T04:44:42;3.40;1.00
5130;DHT22;2583;50.946;6.954;2023-04-03T04:47:08;3.50;1.00
5130;DHT22;2583;50.946;6.954;2023-04-03T04:49:35;3.50;1.00
5130;DHT22;2583;50.946;6.954;2023-04-03T04:52:02;3.40;1.00
5130;DHT22;2583;50.946;6.954;2023-04-03T04:54:29;3.40;1.00
5130;DHT22;2583;50.946;6.954;2023-04-03T04:56:56;3.40;1.00
5130;DHT22;2583;50.946;6.954;2023-04-03T04:59:22;3.40;1.00
5130;DHT22;2583;50.946;6.954;2023-04-03T05:01:49;3.30;1.00
5130;DHT22;2583;50.946;6.954;2023-04-03T05:04:16;3.30;1.00
5130;DHT22;2583;50.946;6.954;2023-04-03T05:06:43;3.30;1.00
5130;DHT22;2583;50.946;6.954;2023-04-03T05:09:10;3.20;1.00
5130;DHT22;2583;50.946;6.954;2023-04-03T05:11:37;3.20;1.00
5130;DHT22;2583;50.946;6.954;2023-04-03T05:14:04;3.20;1.00
5130;DHT22;2583;50.946;6.954;2023-04-03T05:16:33;3.20;1.00
5130;DHT22;2583;50.946;6.954;2023-04-03T05:19:00;3.20;1.00
5130;DHT22;2583;50.946;6.954;2023-04-03T05:21:27;3.20;1.00
5130;DHT22;2583;50.946;6.954;2023-04-03T05:23:59;3.20;1.00
5130;DHT22;2583;50.946;6.954;2023-04-03T05:26:29;3.20;1.00
5130;DHT22;2583;50.946;6.954;2023-04-03T05:28:56;3.20;1.00
5130;DHT22;2583;50.946;6.954;2023-04-03T05:31:23;3.20;1.00
5130;DHT22;2583;50.946;6.954;2023-04-03T05:33:50;3.10;1.00
5130;DHT22;2583;50.946;6.954;2023-04-03T05:36:18;3.20;1.00
5130;DHT22;2583;50.946;6.954;2023-04-03T05:38:45;3.20;1.00
5130;DHT22;2583;50.946;6.954;2023-04-03T05:41:12;3.20;1.00
5130;DHT22;2583;50.946;6.954;2023-04-03T05:43:39;3.20;1.00
5130;DHT22;2583;50.946;6.954;2023-04-03T05:46:14;3.20;1.00
5130;DHT22;2583;50.946;6.954;2023-04-03T05:48:42;3.20;1.00
5130;DHT22;2583;50.946;6.954;2023-04-03T05:51:24;3.30;1.00
5130;DHT22;2583;50.946;6.954;2023-04-03T05:54:03;3.30;1.00
5130;DHT22;2583;50.946;6.954;2023-04-03T05:56:32;3.40;1.00
5130;DHT22;2583;50.946;6.954;2023-04-03T05:58:59;3.40;1.00
5130;DHT22;2583;50.946;6.954;2023-04-03T06:01:26;3.50;1.00
5130;DHT22;2583;50.946;6.954;2023-04-03T06:03:52;3.50;1.00
5130;DHT22;2583;50.946;6.954;2023-04-03T06:06:20;3.60;1.00
5130;DHT22;2583;50.946;6.954;2023-04-03T06:08:48;3.60;1.00
5130;DHT22;2583;50.946;6.954;2023-04-03T06:11:15;3.60;1.00
5130;DHT22;2583;50.946;6.954;2023-04-03T06:13:43;3.70;1.00
5130;DHT22;2583;50.946;6.954;2023-04-03T06:16:12;3.70;1.00
5130;DHT22;2583;50.946;6.954;2023-04-03T06:18:41;3.80;1.00
5130;DHT22;2583;50.946;6.954;2023-04-03T06:21:09;3.80;1.00
5130;DHT22;2583;50.946;6.954;2023-04-03T06:23:35;3.80;1.00
5130;DHT22;2583;50.946;6.954;2023-04-03T06:26:03;3.90;1.00
5130;DHT22;2583;50.946;6.954;2023-04-03T06:28:30;3.90;1.00
5130;DHT22;2583;50.946;6.954;2023-04-03T06:30:56;3.90;1.00
5130;DHT22;2583;50.946;6.954;2023-04-03T06:33:23;4.00;1.00
5130;DHT22;2583;50.946;6.954;2023-04-03T06:35:56;4.00;1.00
5130;DHT22;2583;50.946;6.954;2023-04-03T06:38:23;4.10;1.00
5130;DHT22;2583;50.946;6.954;2023-04-03T06:40:50;4.10;1.00
5130;DHT22;2583;50.946;6.954;2023-04-03T06:43:18;4.10;1.00
5130;DHT22;2583;50.946;6.954;2023-04-03T06:45:45;4.20;1.00
5130;DHT22;2583;50.946;6.954;2023-04-03T06:48:12;4.20;1.00
5130;DHT22;2583;50.946;6.954;2023-04-03T06:50:39;4.20;1.00
5130;DHT22;2583;50.946;6.954;2023-04-03T06:53:06;4.20;1.00
5130;DHT22;2583;50.946;6.954;2023-04-03T06:55:33;4.20;1.00
5130;DHT22;2583;50.946;6.954;2023-04-03T06:58:00;4.30;1.00
5130;DHT22;2583;50.946;6.954;2023-04-03T07:00:27;4.30;1.00
5130;DHT22;2583;50.946;6.954;2023-04-03T07:02:54;4.30;1.00
5130;DHT22;2583;50.946;6.954;2023-04-03T07:05:24;4.40;1.00
5130;DHT22;2583;50.946;6.954;2023-04-03T07:07:52;4.50;1.00
5130;DHT22;2583;50.946;6.954;2023-04-03T07:10:20;4.50;1.00
5130;DHT22;2583;50.946;6.954;2023-04-03T07:12:46;4.60;1.00
5130;DHT22;2583;50.946;6.954;2023-04-03T07:15:14;4.70;1.00
5130;DHT22;2583;50.946;6.954;2023-04-03T07:17:41;4.70;1.00
5130;DHT22;2583;50.946;6.954;2023-04-03T07:20:08;4.60;1.00
5130;DHT22;2583;50.946;6.954;2023-04-03T07:22:35;4.70;1.00
5130;DHT22;2583;50.946;6.954;2023-04-03T07:25:03;4.80;1.00
5130;DHT22;2583;50.946;6.954;2023-04-03T07:27:29;4.90;1.00
5130;DHT22;2583;50.946;6.954;2023-04-03T07:29:56;4.80;1.00
5130;DHT22;2583;50.946;6.954;2023-04-03T07:32:23;4.80;1.00
5130;DHT22;2583;50.946;6.954;2023-04-03T07:34:50;4.90;1.00
5130;DHT22;2583;50.946;6.954;2023-04-03T07:37:18;4.90;1.00
5130;DHT22;2583;50.946;6.954;2023-04-03T07:39:45;5.00;1.00
5130;DHT22;2583;50.946;6.954;2023-04-03T07:42:12;5.10;1.00
5130;DHT22;2583;50.946;6.954;2023-04-03T07:44:41;5.10;1.00
5130;DHT22;2583;50.946;6.954;2023-04-03T07:47:09;5.10;1.00
5130;DHT22;2583;50.946;6.954;2023-04-03T07:49:36;5.20;1.00
5130;DHT22;2583;50.946;6.954;2023-04-03T07:52:06;5.20;1.00
5130;DHT22;2583;50.946;6.954;2023-04-03T07:54:33;5.30;1.00
5130;DHT22;2583;50.946;6.954;2023-04-03T07:57:00;5.40;1.00
5130;DHT22;2583;50.946;6.954;2023-04-03T07:59:27;5.40;1.00
5130;DHT22;2583;50.946;6.954;2023-04-03T08:01:54;5.40;1.00
5130;DHT22;2583;50.946;6.954;2023-04-03T08:04:21;5.50;1.00
5130;DHT22;2583;50.946;6.954;2023-04-03T08:06:48;5.60;1.00
5130;DHT22;2583;50.946;6.954;2023-04-03T08:09:15;5.80;1.00
5130;DHT22;2583;50.946;6.954;2023-04-03T08:11:42;5.70;1.00
5130;DHT22;2583;50.946;6.954;2023-04-03T08:14:10;5.80;1.00
5130;DHT22;2583;50.946;6.954;2023-04-03T08:16:43;5.90;1.00
5130;DHT22;2583;50.946;6.954;2023-04-03T08:19:10;5.90;1.00
5130;DHT22;2583;50.946;6.954;2023-04-03T08:21:51;6.00;1.00
5130;DHT22;2583;50.946;6.954;2023-04-03T08:24:18;6.00;1.00
5130;DHT22;2583;50.946;6.954;2023-04-03T08:26:44;6.10;1.00
5130;DHT22;2583;50.946;6.954;2023-04-03T08:29:11;6.20;1.00
5130;DHT22;2583;50.946;6.954;2023-04-03T08:31:38;6.30;1.00
5130;DHT22;2583;50.946;6.954;2023-04-03T08:34:05;6.30;1.00
5130;DHT22;2583;50.946;6.954;2023-04-03T08:36:32;6.40;1.00
5130;DHT22;2583;50.946;6.954;2023-04-03T08:38:59;6.60;1.00
5130;DHT22;2583;50.946;6.954;2023-04-03T08:41:52;6.70;1.00
5130;DHT22;2583;50.946;6.954;2023-04-03T08:44:52;6.70;1.00
5130;DHT22;2583;50.946;6.954;2023-04-03T08:47:52;6.80;1.00
5130;DHT22;2583;50.946;6.954;2023-04-03T08:50:33;6.90;1.00
5130;DHT22;2583;50.946;6.954;2023-04-03T08:53:03;7.20;1.00
5130;DHT22;2583;50.946;6.954;2023-04-03T08:55:51;7.40;1.00
5130;DHT22;2583;50.946;6.954;2023-04-03T09:01:20;7.70;1.00
5130;DHT22;2583;50.946;6.954;2023-04-03T09:03:47;7.80;1.00
5130;DHT22;2583;50.946;6.954;2023-04-03T09:06:23;7.80;1.00
5130;DHT22;2583;50.946;6.954;2023-04-03T09:11:36;8.00;1.00
5130;DHT22;2583;50.946;6.954;2023-04-03T09:16:55;7.80;1.00
5130;DHT22;2583;50.946;6.954;2023-04-03T09:22:20;7.90;1.00
5130;DHT22;2583;50.946;6.954;2023-04-03T09:24:55;7.90;1.00
5130;DHT22;2583;50.946;6.954;2023-04-03T09:27:24;8.00;1.00
5130;DHT22;2583;50.946;6.954;2023-04-03T09:29:53;8.10;1.00
5130;DHT22;2583;50.946;6.954;2023-04-03T09:32:28;8.30;1.00
5130;DHT22;2583;50.946;6.954;2023-04-03T09:35:01;8.40;1.00
5130;DHT22;2583;50.946;6.954;2023-04-03T09:37:39;8.40;1.00
5130;DHT22;2583;50.946;6.954;2023-04-03T09:40:28;8.30;1.00
5130;DHT22;2583;50.946;6.954;2023-04-03T09:42:57;8.40;1.00
5130;DHT22;2583;50.946;6.954;2023-04-03T09:45:31;8.50;1.00
5130;DHT22;2583;50.946;6.954;2023-04-03T09:53:35;8.60;1.00
5130;DHT22;2583;50.946;6.954;2023-04-03T09:56:26;8.60;1.00
5130;DHT22;2583;50.946;6.954;2023-04-03T09:59:08;8.60;1.00
5130;DHT22;2583;50.946;6.954;2023-04-03T10:01:42;8.70;1.00
5130;DHT22;2583;50.946;6.954;2023-04-03T10:04:10;8.70;1.00
5130;DHT22;2583;50.946;6.954;2023-04-03T10:06:51;8.70;1.00
5130;DHT22;2583;50.946;6.954;2023-04-03T10:09:22;8.80;1.00
5130;DHT22;2583;50.946;6.954;2023-04-03T10:12:07;8.70;1.00
5130;DHT22;2583;50.946;6.954;2023-04-03T10:14:58;8.80;1.00
5130;DHT22;2583;50.946;6.954;2023-04-03T10:18:02;8.90;1.00
5130;DHT22;2583;50.946;6.954;2023-04-03T10:20:49;8.80;1.00
5130;DHT22;2583;50.946;6.954;2023-04-03T10:23:26;8.80;1.00
5130;DHT22;2583;50.946;6.954;2023-04-03T10:31:46;9.60;1.00
5130;DHT22;2583;50.946;6.954;2023-04-03T10:39:57;9.50;1.00
5130;DHT22;2583;50.946;6.954;2023-04-03T10:42:37;9.50;1.00
5130;DHT22;2583;50.946;6.954;2023-04-03T10:48:28;9.50;1.00
5130;DHT22;2583;50.946;6.954;2023-04-03T10:54:08;9.70;1.00
5130;DHT22;2583;50.946;6.954;2023-04-03T10:56:41;9.80;1.00
5130;DHT22;2583;50.946;6.954;2023-04-03T11:01:42;10.00;1.00
5130;DHT22;2583;50.946;6.954;2023-04-03T11:04:11;10.00;1.00
5130;DHT22;2583;50.946;6.954;2023-04-03T11:06:43;10.10;1.00
5130;DHT22;2583;50.946;6.954;2023-04-03T11:09:37;9.80;1.00
5130;DHT22;2583;50.946;6.954;2023-04-03T11:12:17;9.90;1.00
5130;DHT22;2583;50.946;6.954;2023-04-03T11:14:47;9.90;1.00
5130;DHT22;2583;50.946;6.954;2023-04-03T11:17:21;10.00;1.00
5130;DHT22;2583;50.946;6.954;2023-04-03T11:23:04;10.20;1.00
5130;DHT22;2583;50.946;6.954;2023-04-03T11:25:35;10.00;1.00
5130;DHT22;2583;50.946;6.954;2023-04-03T11:28:06;10.00;1.00
5130;DHT22;2583;50.946;6.954;2023-04-03T11:35:49;10.20;1.00
5130;DHT22;2583;50.946;6.954;2023-04-03T11:38:24;10.30;1.00
5130;DHT22;2583;50.946;6.954;2023-04-03T11:40:54;10.40;1.00
5130;DHT22;2583;50.946;6.954;2023-04-03T11:43:23;10.50;1.00
5130;DHT22;2583;50.946;6.954;2023-04-03T11:45:54;10.60;1.00
5130;DHT22;2583;50.946;6.954;2023-04-03T11:53:40;10.80;1.00
5130;DHT22;2583;50.946;6.954;2023-04-03T12:01:44;11.00;1.00
5130;DHT22;2583;50.946;6.954;2023-04-03T12:04:14;11.30;1.00
5130;DHT22;2583;50.946;6.954;2023-04-03T12:06:50;11.50;1.00
5130;DHT22;2583;50.946;6.954;2023-04-03T12:09:54;11.30;1.00
5130;DHT22;2583;50.946;6.954;2023-04-03T12:12:37;11.20;1.00
5130;DHT22;2583;50.946;6.954;2023-04-03T12:15:26;11.40;1.00
5130;DHT22;2583;50.946;6.954;2023-04-03T12:17:53;11.40;1.00
5130;DHT22;2583;50.946;6.954;2023-04-03T12:23:33;11.80;1.00
5130;DHT22;2583;50.946;6.954;2023-04-03T12:26:22;11.90;1.00
5130;DHT22;2583;50.946;6.954;2023-04-03T12:28:58;12.30;1.00
5130;DHT22;2583;50.946;6.954;2023-04-03T12:31:37;12.20;1.00
5130;DHT22;2583;50.946;6.954;2023-04-03T12:34:37;12.20;1.00
5130;DHT22;2583;50.946;6.954;2023-04-03T12:45:20;12.50;1.00
5130;DHT22;2583;50.946;6.954;2023-04-03T12:47:49;12.60;1.00
5130;DHT22;2583;50.946;6.954;2023-04-03T12:50:21;12.70;1.00
5130;DHT22;2583;50.946;6.954;2023-04-03T12:52:56;12.70;1.00
5130;DHT22;2583;50.946;6.954;2023-04-03T12:55:24;12.90;1.00
5130;DHT22;2583;50.946;6.954;2023-04-03T12:57:51;12.90;1.00
5130;DHT22;2583;50.946;6.954;2023-04-03T13:00:33;13.10;1.00
5130;DHT22;2583;50.946;6.954;2023-04-03T13:03:02;13.30;1.00
5130;DHT22;2583;50.946;6.954;2023-04-03T13:05:30;13.30;1.00
5130;DHT22;2583;50.946;6.954;2023-04-03T13:08:05;13.50;1.00
5130;DHT22;2583;50.946;6.954;2023-04-03T13:11:00;13.50;1.00
5130;DHT22;2583;50.946;6.954;2023-04-03T13:13:29;13.70;1.00
5130;DHT22;2583;50.946;6.954;2023-04-03T13:15:57;14.20;1.00
5130;DHT22;2583;50.946;6.954;2023-04-03T13:18:34;14.20;1.00
5130;DHT22;2583;50.946;6.954;2023-04-03T13:21:31;14.30;1.00
5130;DHT22;2583;50.946;6.954;2023-04-03T13:24:01;14.70;1.00
5130;DHT22;2583;50.946;6.954;2023-04-03T13:26:41;14.70;1.00
5130;DHT22;2583;50.946;6.954;2023-04-03T13:29:27;14.80;1.00
5130;DHT22;2583;50.946;6.954;2023-04-03T13:31:58;14.50;1.00
5130;DHT22;2583;50.946;6.954;2023-04-03T13:34:29;14.90;1.00
5130;DHT22;2583;50.946;6.954;2023-04-03T13:37:00;14.90;1.00
5130;DHT22;2583;50.946;6.954;2023-04-03T13:39:30;14.90;1.00
5130;DHT22;2583;50.946;6.954;2023-04-03T13:42:14;15.00;1.00
5130;DHT22;2583;50.946;6.954;2023-04-03T13:44:42;15.30;1.00
5130;DHT22;2583;50.946;6.954;2023-04-03T13:49:46;15.90;1.00
5130;DHT22;2583;50.946;6.954;2023-04-03T13:52:32;15.90;1.00
5130;DHT22;2583;50.946;6.954;2023-04-03T13:55:25;15.90;1.00
5130;DHT22;2583;50.946;6.954;2023-04-03T14:01:05;16.70;1.00
5130;DHT22;2583;50.946;6.954;2023-04-03T14:06:13;17.00;1.00
5130;DHT22;2583;50.946;6.954;2023-04-03T14:08:43;16.60;1.00
5130;DHT22;2583;50.946;6.954;2023-04-03T14:11:17;17.10;1.00
5130;DHT22;2583;50.946;6.954;2023-04-03T14:13:46;17.50;1.00
5130;DHT22;2583;50.946;6.954;2023-04-03T14:16:15;17.80;1.00
5130;DHT22;2583;50.946;6.954;2023-04-03T14:18:45;18.00;1.00
5130;DHT22;2583;50.946;6.954;2023-04-03T14:21:14;16.70;1.00
5130;DHT22;2583;50.946;6.954;2023-04-03T14:23:41;15.30;1.00
5130;DHT22;2583;50.946;6.954;2023-04-03T14:26:19;14.50;1.00
5130;DHT22;2583;50.946;6.954;2023-04-03T14:28:50;14.20;1.00
5130;DHT22;2583;50.946;6.954;2023-04-03T14:31:19;13.70;1.00
5130;DHT22;2583;50.946;6.954;2023-04-03T14:33:46;13.20;1.00
5130;DHT22;2583;50.946;6.954;2023-04-03T14:36:22;13.00;1.00
5130;DHT22;2583;50.946;6.954;2023-04-03T14:38:50;12.70;1.00
5130;DHT22;2583;50.946;6.954;2023-04-03T14:41:19;12.50;1.00
5130;DHT22;2583;50.946;6.954;2023-04-03T14:43:47;12.40;1.00
5130;DHT22;2583;50.946;6.954;2023-04-03T14:46:26;12.40;1.00
5130;DHT22;2583;50.946;6.954;2023-04-03T14:49:14;12.00;1.00
5130;DHT22;2583;50.946;6.954;2023-04-03T14:51:43;11.80;1.00
5130;DHT22;2583;50.946;6.954;2023-04-03T14:54:16;11.90;1.00
5130;DHT22;2583;50.946;6.954;2023-04-03T14:56:43;11.90;1.00
5130;DHT22;2583;50.946;6.954;2023-04-03T14:59:12;11.80;1.00
5130;DHT22;2583;50.946;6.954;2023-04-03T15:01:40;11.70;1.00
5130;DHT22;2583;50.946;6.954;2023-04-03T15:04:15;11.70;1.00
5130;DHT22;2583;50.946;6.954;2023-04-03T15:06:43;11.70;1.00
5130;DHT22;2583;50.946;6.954;2023-04-03T15:09:27;11.60;1.00
5130;DHT22;2583;50.946;6.954;2023-04-03T15:11:55;11.50;1.00
5130;DHT22;2583;50.946;6.954;2023-04-03T15:14:22;11.60;1.00
5130;DHT22;2583;50.946;6.954;2023-04-03T15:17:05;11.60;1.00
5130;DHT22;2583;50.946;6.954;2023-04-03T15:19:36;11.50;1.00
5130;DHT22;2583;50.946;6.954;2023-04-03T15:22:03;11.40;1.00
5130;DHT22;2583;50.946;6.954;2023-04-03T15:24:30;11.40;1.00
5130;DHT22;2583;50.946;6.954;2023-04-03T15:26:57;11.30;1.00
5130;DHT22;2583;50.946;6.954;2023-04-03T15:29:24;11.40;1.00
5130;DHT22;2583;50.946;6.954;2023-04-03T15:31:51;11.50;1.00
5130;DHT22;2583;50.946;6.954;2023-04-03T15:34:20;11.60;1.00
5130;DHT22;2583;50.946;6.954;2023-04-03T15:36:49;11.60;1.00
5130;DHT22;2583;50.946;6.954;2023-04-03T15:39:16;11.50;1.00
5130;DHT22;2583;50.946;6.954;2023-04-03T15:41:44;11.30;1.00
5130;DHT22;2583;50.946;6.954;2023-04-03T15:44:11;11.30;1.00
5130;DHT22;2583;50.946;6.954;2023-04-03T15:46:39;11.30;1.00
5130;DHT22;2583;50.946;6.954;2023-04-03T15:49:06;11.10;1.00
5130;DHT22;2583;50.946;6.954;2023-04-03T15:51:33;11.10;1.00
5130;DHT22;2583;50.946;6.954;2023-04-03T15:54:00;11.10;1.00
5130;DHT22;2583;50.946;6.954;2023-04-03T15:56:26;11.10;1.00
5130;DHT22;2583;50.946;6.954;2023-04-03T15:58:53;11.20;1.00
5130;DHT22;2583;50.946;6.954;2023-04-03T16:01:20;11.20;1.00
5130;DHT22;2583;50.946;6.954;2023-04-03T16:03:47;11.10;1.00
5130;DHT22;2583;50.946;6.954;2023-04-03T16:06:16;11.00;1.00
5130;DHT22;2583;50.946;6.954;2023-04-03T16:08:46;11.00;1.00
5130;DHT22;2583;50.946;6.954;2023-04-03T16:11:14;11.00;1.00
5130;DHT22;2583;50.946;6.954;2023-04-03T16:13:40;10.90;1.00
5130;DHT22;2583;50.946;6.954;2023-04-03T16:16:09;10.90;1.00
5130;DHT22;2583;50.946;6.954;2023-04-03T16:18:36;10.90;1.00
5130;DHT22;2583;50.946;6.954;2023-04-03T16:21:03;10.90;1.00
5130;DHT22;2583;50.946;6.954;2023-04-03T16:23:32;10.70;1.00
5130;DHT22;2583;50.946;6.954;2023-04-03T16:25:58;10.60;1.00
5130;DHT22;2583;50.946;6.954;2023-04-03T16:28:25;10.70;1.00
5130;DHT22;2583;50.946;6.954;2023-04-03T16:30:52;10.70;1.00
5130;DHT22;2583;50.946;6.954;2023-04-03T16:33:19;10.70;1.00
5130;DHT22;2583;50.946;6.954;2023-04-03T16:35:50;10.60;1.00
5130;DHT22;2583;50.946;6.954;2023-04-03T16:38:17;10.50;1.00
5130;DHT22;2583;50.946;6.954;2023-04-03T16:40:45;10.40;1.00
5130;DHT22;2583;50.946;6.954;2023-04-03T16:43:12;10.40;1.00
5130;DHT22;2583;50.946;6.954;2023-04-03T16:45:39;10.40;1.00
5130;DHT22;2583;50.946;6.954;2023-04-03T16:48:06;10.20;1.00
5130;DHT22;2583;50.946;6.954;2023-04-03T16:50:33;10.10;1.00
5130;DHT22;2583;50.946;6.954;2023-04-03T16:53:00;10.10;1.00
5130;DHT22;2583;50.946;6.954;2023-04-03T16:55:29;10.10;1.00
5130;DHT22;2583;50.946;6.954;2023-04-03T16:57:56;10.10;1.00
5130;DHT22;2583;50.946;6.954;2023-04-03T17:00:23;10.10;1.00
5130;DHT22;2583;50.946;6.954;2023-04-03T17:02:49;10.10;1.00
5130;DHT22;2583;50.946;6.954;2023-04-03T17:05:16;10.00;1.00
5130;DHT22;2583;50.946;6.954;2023-04-03T17:07:43;9.90;1.00
5130;DHT22;2583;50.946;6.954;2023-04-03T17:10:11;9.90;1.00
5130;DHT22;2583;50.946;6.954;2023-04-03T17:12:38;9.80;1.00
5130;DHT22;2583;50.946;6.954;2023-04-03T17:15:06;9.80;1.00
5130;DHT22;2583;50.946;6.954;2023-04-03T17:17:33;9.70;1.00
5130;DHT22;2583;50.946;6.954;2023-04-03T17:20:01;9.60;1.00
5130;DHT22;2583;50.946;6.954;2023-04-03T17:22:29;9.60;1.00
5130;DHT22;2583;50.946;6.954;2023-04-03T17:24:56;9.50;1.00
5130;DHT22;2583;50.946;6.954;2023-04-03T17:27:23;9.50;1.00
5130;DHT22;2583;50.946;6.954;2023-04-03T17:29:50;9.30;1.00
5130;DHT22;2583;50.946;6.954;2023-04-03T17:32:16;9.30;1.00
5130;DHT22;2583;50.946;6.954;2023-04-03T17:34:45;9.20;1.00
5130;DHT22;2583;50.946;6.954;2023-04-03T17:37:12;9.20;1.00
5130;DHT22;2583;50.946;6.954;2023-04-03T17:39:39;9.10;1.00
5130;DHT22;2583;50.946;6.954;2023-04-03T17:42:06;9.10;1.00
5130;DHT22;2583;50.946;6.954;2023-04-03T17:44:33;9.10;1.00
5130;DHT22;2583;50.946;6.954;2023-04-03T17:47:00;9.10;1.00
5130;DHT22;2583;50.946;6.954;2023-04-03T17:49:27;9.00;1.00
5130;DHT22;2583;50.946;6.954;2023-04-03T17:51:53;9.00;1.00
5130;DHT22;2583;50.946;6.954;2023-04-03T17:54:21;8.90;1.00
5130;DHT22;2583;50.946;6.954;2023-04-03T17:56:48;8.90;1.00
5130;DHT22;2583;50.946;6.954;2023-04-03T17:59:16;8.80;1.00
5130;DHT22;2583;50.946;6.954;2023-04-03T18:01:46;8.80;1.00
5130;DHT22;2583;50.946;6.954;2023-04-03T18:04:13;8.80;1.00
5130;DHT22;2583;50.946;6.954;2023-04-03T18:06:44;8.80;1.00
5130;DHT22;2583;50.946;6.954;2023-04-03T18:09:17;8.70;1.00
5130;DHT22;2583;50.946;6.954;2023-04-03T18:11:46;8.70;1.00
5130;DHT22;2583;50.946;6.954;2023-04-03T18:14:15;8.60;1.00
5130;DHT22;2583;50.946;6.954;2023-04-03T18:16:43;8.60;1.00